createdAt,value
2022-12-11T00:00:57.085Z,20.27
2022-12-11T00:03:24.966Z,19.75
2022-12-11T00:05:54.211Z,18.77
2022-12-11T00:08:22.059Z,20.10
2022-12-11T00:10:51.277Z,19.75
2022-12-11T00:13:20.066Z,20.10
2022-12-11T00:15:50.700Z,20.17
2022-12-11T00:18:18.450Z,19.45
2022-12-11T00:20:49.392Z,19.98
2022-12-11T00:23:18.605Z,19.75
2022-12-11T00:25:47.851Z,20.05
2022-12-11T00:28:18.830Z,20.45
2022-12-11T00:30:46.730Z,19.77
2022-12-11T00:33:15.976Z,18.90
2022-12-11T00:35:45.477Z,19.05
2022-12-11T00:38:16.480Z,19.13
2022-12-11T00:40:46.043Z,20.38
2022-12-11T00:43:14.485Z,18.95
2022-12-11T00:45:43.419Z,20.38
2022-12-11T00:48:12.178Z,20.10
2022-12-11T00:50:40.612Z,19.80
2022-12-11T00:53:09.344Z,18.60
2022-12-11T00:55:38.580Z,19.98
2022-12-11T00:58:08.181Z,19.42
2022-12-11T01:00:36.468Z,19.75
2022-12-11T01:03:04.941Z,18.33
2022-12-11T01:05:33.182Z,17.23
2022-12-11T01:08:01.171Z,20.10
2022-12-11T01:10:29.573Z,18.85
2022-12-11T01:12:59.456Z,19.40
2022-12-11T01:15:30.545Z,19.30
2022-12-11T01:17:58.739Z,19.67
2022-12-11T01:20:28.500Z,19.10
2022-12-11T01:22:58.460Z,20.42
2022-12-11T01:25:26.840Z,18.70
2022-12-11T01:27:56.076Z,20.65
2022-12-11T01:30:26.221Z,20.13
2022-12-11T01:32:55.470Z,19.67
2022-12-11T01:35:23.361Z,19.42
2022-12-11T01:37:51.147Z,18.30
2022-12-11T01:40:20.905Z,19.77
2022-12-11T01:42:49.082Z,17.58
2022-12-11T01:45:33.325Z,18.75
2022-12-11T01:48:07.839Z,20.05
2022-12-11T01:50:40.507Z,20.08
2022-12-11T01:53:11.464Z,19.58
2022-12-11T01:55:47.706Z,20.08
2022-12-11T01:58:17.305Z,21.88
2022-12-11T02:00:46.924Z,21.08
2022-12-11T02:03:16.276Z,20.80
2022-12-11T02:05:47.133Z,23.27
2022-12-11T02:08:15.457Z,21.63
2022-12-11T02:10:53.531Z,20.60
2022-12-11T02:13:31.506Z,19.02
2022-12-11T02:16:07.115Z,19.10
2022-12-11T02:18:44.119Z,19.42
2022-12-11T02:21:26.349Z,20.38
2022-12-11T02:24:16.136Z,19.55
2022-12-11T02:27:17.637Z,18.92
2022-12-11T02:29:52.012Z,19.75
2022-12-11T02:32:30.374Z,20.10
2022-12-11T02:35:09.572Z,19.23
2022-12-11T02:37:43.520Z,20.67
2022-12-11T02:40:14.713Z,20.50
2022-12-11T02:42:45.161Z,20.50
2022-12-11T02:45:15.978Z,18.85
2022-12-11T02:47:47.317Z,18.33
2022-12-11T02:50:21.235Z,18.40
2022-12-11T02:52:53.120Z,20.25
2022-12-11T02:55:21.750Z,20.08
2022-12-11T02:57:53.652Z,18.58
2022-12-11T03:00:40.132Z,17.95
2022-12-11T03:03:10.019Z,21.15
2022-12-11T03:05:43.230Z,19.08
2022-12-11T03:08:11.421Z,17.90
2022-12-11T03:10:41.481Z,19.13
2022-12-11T03:13:13.797Z,18.00
2022-12-11T03:15:54.408Z,18.58
2022-12-11T03:18:34.042Z,16.42
2022-12-11T03:21:11.897Z,18.75
2022-12-11T03:23:54.942Z,19.58
2022-12-11T03:26:26.875Z,17.95
2022-12-11T03:29:06.823Z,19.15
2022-12-11T03:31:45.392Z,19.23
2022-12-11T03:34:20.972Z,19.25
2022-12-11T03:36:50.019Z,15.93
2022-12-11T03:39:22.602Z,18.10
2022-12-11T03:41:52.184Z,20.05
2022-12-11T03:44:22.172Z,18.42
2022-12-11T03:46:53.267Z,19.33
2022-12-11T03:49:24.147Z,19.83
2022-12-11T03:51:55.496Z,18.77
2022-12-11T03:54:24.711Z,18.50
2022-12-11T03:56:56.708Z,19.27
2022-12-11T03:59:31.149Z,19.60
2022-12-11T04:02:03.219Z,20.65
2022-12-11T04:04:34.106Z,16.60
2022-12-11T04:07:02.008Z,18.50
2022-12-11T04:09:30.010Z,18.02
2022-12-11T04:11:57.902Z,18.58
2022-12-11T04:14:43.176Z,18.90
2022-12-11T04:17:12.489Z,18.65
2022-12-11T04:19:57.909Z,19.33
2022-12-11T04:22:45.032Z,19.60
2022-12-11T04:25:13.306Z,18.10
2022-12-11T04:27:50.228Z,19.77
2022-12-11T04:30:33.921Z,16.75
2022-12-11T04:33:03.732Z,19.67
2022-12-11T04:35:31.697Z,18.70
2022-12-11T04:37:59.888Z,18.80
2022-12-11T04:40:28.055Z,17.00
2022-12-11T04:42:56.173Z,19.45
2022-12-11T04:45:23.945Z,17.67
2022-12-11T04:47:54.326Z,18.73
2022-12-11T04:50:24.960Z,19.15
2022-12-11T04:52:56.010Z,18.73
2022-12-11T04:55:25.709Z,18.95
2022-12-11T04:57:58.627Z,17.63
2022-12-11T05:02:54.972Z,18.40
2022-12-11T05:05:24.776Z,19.27
2022-12-11T05:07:52.581Z,17.92
2022-12-11T05:10:20.622Z,19.33
2022-12-11T05:12:48.364Z,19.40
2022-12-11T05:15:17.534Z,18.23
2022-12-11T05:17:49.489Z,17.50
2022-12-11T05:20:23.889Z,18.70
2022-12-11T05:22:54.080Z,19.15
2022-12-11T05:25:24.676Z,17.70
2022-12-11T05:27:52.503Z,19.55
2022-12-11T05:30:20.363Z,18.00
2022-12-11T05:32:49.220Z,19.27
2022-12-11T05:35:17.248Z,18.65
2022-12-11T05:37:46.299Z,18.15
2022-12-11T05:40:15.984Z,17.48
2022-12-11T05:42:43.740Z,18.77
2022-12-11T05:45:12.615Z,17.23
2022-12-11T05:47:40.682Z,17.70
2022-12-11T05:50:09.371Z,17.77
2022-12-11T05:52:37.160Z,19.70
2022-12-11T05:55:05.267Z,20.10
2022-12-11T05:57:34.395Z,19.38
2022-12-11T06:00:02.208Z,18.45
2022-12-11T06:02:30.050Z,17.95
2022-12-11T06:04:58.008Z,18.02
2022-12-11T06:07:26.038Z,18.23
2022-12-11T06:09:53.947Z,19.35
2022-12-11T06:12:21.618Z,18.67
2022-12-11T06:14:50.841Z,18.95
2022-12-11T06:17:19.691Z,17.40
2022-12-11T06:19:47.493Z,18.02
2022-12-11T06:22:15.322Z,17.98
2022-12-11T06:24:43.108Z,18.70
2022-12-11T06:27:11.911Z,18.27
2022-12-11T06:29:39.712Z,19.23
2022-12-11T06:32:10.720Z,19.30
2022-12-11T06:34:38.667Z,18.67
2022-12-11T06:37:07.235Z,20.33
2022-12-11T06:39:37.115Z,18.77
2022-12-11T06:42:30.196Z,19.20
2022-12-11T06:44:59.859Z,18.08
2022-12-11T06:47:32.184Z,18.55
2022-12-11T06:50:05.593Z,17.25
2022-12-11T06:52:33.670Z,19.75
2022-12-11T06:55:02.621Z,18.15
2022-12-11T06:57:31.595Z,18.60
2022-12-11T06:59:59.297Z,19.75
2022-12-11T07:02:34.491Z,18.13
2022-12-11T07:05:03.439Z,18.85
2022-12-11T07:07:40.121Z,20.52
2022-12-11T07:10:11.358Z,19.30
2022-12-11T07:12:40.678Z,18.45
2022-12-11T07:15:12.077Z,18.83
2022-12-11T07:17:45.936Z,16.75
2022-12-11T07:20:13.945Z,16.58
2022-12-11T07:22:46.434Z,18.17
2022-12-11T07:27:44.484Z,18.13
2022-12-11T07:30:13.260Z,18.92
2022-12-11T07:32:44.056Z,19.13
2022-12-11T07:35:13.820Z,21.10
2022-12-11T07:37:42.518Z,18.85
2022-12-11T07:40:16.932Z,17.80
2022-12-11T07:42:53.918Z,20.00
2022-12-11T07:45:24.094Z,19.85
2022-12-11T07:47:56.092Z,20.40
2022-12-11T07:50:28.364Z,20.30
2022-12-11T07:52:56.192Z,18.85
2022-12-11T07:55:23.929Z,20.00
2022-12-11T07:57:51.871Z,19.23
2022-12-11T08:00:20.342Z,22.35
2022-12-11T08:02:48.472Z,22.92
2022-12-11T08:05:18.226Z,20.80
2022-12-11T08:07:50.456Z,21.92
2022-12-11T08:10:18.445Z,17.75
2022-12-11T08:12:46.241Z,19.52
2022-12-11T08:15:15.623Z,20.00
2022-12-11T08:17:43.446Z,22.38
2022-12-11T08:20:12.219Z,20.02
2022-12-11T08:22:41.802Z,20.98
2022-12-11T08:25:10.264Z,22.73
2022-12-11T08:27:42.270Z,19.00
2022-12-11T08:30:11.222Z,18.17
2022-12-11T08:32:39.080Z,19.52
2022-12-11T08:35:08.256Z,20.35
2022-12-11T08:37:36.277Z,20.23
2022-12-11T08:40:06.458Z,19.55
2022-12-11T08:42:34.319Z,19.80
2022-12-11T08:45:11.990Z,17.48
2022-12-11T08:47:40.074Z,18.58
2022-12-11T08:50:08.201Z,19.45
2022-12-11T08:52:36.200Z,18.08
2022-12-11T08:55:06.155Z,20.23
2022-12-11T08:57:39.745Z,18.27
2022-12-11T09:00:12.308Z,19.17
2022-12-11T09:02:40.259Z,17.80
2022-12-11T09:05:10.147Z,18.45
2022-12-11T09:07:39.003Z,19.85
2022-12-11T09:10:10.149Z,16.10
2022-12-11T09:12:42.359Z,19.65
2022-12-11T09:15:11.080Z,18.83
2022-12-11T09:17:52.634Z,18.35
2022-12-11T09:20:23.105Z,20.02
2022-12-11T09:22:53.263Z,18.65
2022-12-11T09:25:31.146Z,18.65
2022-12-11T09:28:04.420Z,20.30
2022-12-11T09:30:32.393Z,21.58
2022-12-11T09:33:06.788Z,20.73
2022-12-11T09:35:36.202Z,19.55
2022-12-11T09:38:06.855Z,21.40
2022-12-11T09:40:45.383Z,20.50
2022-12-11T09:43:33.192Z,20.38
2022-12-11T09:46:08.815Z,22.92
2022-12-11T09:48:44.845Z,20.38
2022-12-11T09:51:49.069Z,20.17
2022-12-11T09:54:19.875Z,20.98
2022-12-11T09:56:58.512Z,19.38
2022-12-11T09:59:38.220Z,19.77
2022-12-11T10:02:25.765Z,19.80
2022-12-11T10:05:04.758Z,19.95
2022-12-11T10:07:37.972Z,20.60
2022-12-11T10:10:16.308Z,20.67
2022-12-11T10:12:55.716Z,20.98
2022-12-11T10:15:36.230Z,19.40
2022-12-11T10:18:09.341Z,22.55
2022-12-11T10:20:42.974Z,20.67
2022-12-11T10:23:18.553Z,18.92
2022-12-11T10:25:51.560Z,20.65
2022-12-11T10:30:59.641Z,18.33
2022-12-11T10:33:34.720Z,17.25
2022-12-11T10:36:39.753Z,16.42
2022-12-11T10:39:18.442Z,17.40
2022-12-11T10:42:02.481Z,17.67
2022-12-11T10:44:35.385Z,17.17
2022-12-11T10:47:10.143Z,17.13
2022-12-11T10:49:40.140Z,13.93
2022-12-11T10:52:20.285Z,15.77
2022-12-11T10:54:56.138Z,17.65
2022-12-11T10:57:35.736Z,17.55
2022-12-11T11:00:10.058Z,14.77
2022-12-11T11:02:42.477Z,15.82
2022-12-11T11:06:05.024Z,16.60
2022-12-11T11:08:44.243Z,17.30
2022-12-11T11:11:23.681Z,15.40
2022-12-11T11:13:51.688Z,15.93
2022-12-11T11:16:24.472Z,16.33
2022-12-11T11:18:59.952Z,15.68
2022-12-11T11:21:30.180Z,15.75
2022-12-11T11:24:03.160Z,15.10
2022-12-11T11:29:37.440Z,14.73
2022-12-11T11:32:38.141Z,14.57
2022-12-11T11:35:22.716Z,15.05
2022-12-11T11:38:09.601Z,15.02
2022-12-11T11:40:43.132Z,15.23
2022-12-11T11:43:19.893Z,15.02
2022-12-11T11:45:54.916Z,14.60
2022-12-11T11:49:00.121Z,15.20
2022-12-11T11:51:52.534Z,13.90
2022-12-11T11:54:30.917Z,14.75
2022-12-11T11:57:09.775Z,13.90
2022-12-11T11:59:47.725Z,15.30
2022-12-11T12:02:30.723Z,13.73
2022-12-11T12:05:09.256Z,16.05
2022-12-11T12:07:44.746Z,14.52
2022-12-11T12:10:23.045Z,14.93
2022-12-11T12:12:59.595Z,15.00
2022-12-11T12:15:38.188Z,14.20
2022-12-11T12:18:16.872Z,14.27
2022-12-11T12:20:56.015Z,16.73
2022-12-11T12:23:55.716Z,18.70
2022-12-11T12:26:31.020Z,14.70
2022-12-11T12:29:18.876Z,15.35
2022-12-11T12:31:59.818Z,15.70
2022-12-11T12:34:41.634Z,15.52
2022-12-11T12:37:17.432Z,17.08
2022-12-11T12:40:07.456Z,15.68
2022-12-11T12:42:49.404Z,16.25
2022-12-11T12:45:32.642Z,17.02
2022-12-11T12:48:05.107Z,14.95
2022-12-11T12:50:43.354Z,16.52
2022-12-11T12:53:17.427Z,15.60
2022-12-11T12:56:48.433Z,16.38
2022-12-11T12:59:34.954Z,17.40
2022-12-11T13:02:11.735Z,19.70
2022-12-11T13:04:56.038Z,17.05
2022-12-11T13:07:39.548Z,17.67
2022-12-11T13:10:53.551Z,16.85
2022-12-11T13:13:38.308Z,15.52
2022-12-11T13:16:26.900Z,15.57
2022-12-11T13:19:04.275Z,17.20
2022-12-11T13:21:48.848Z,17.10
2022-12-11T13:24:34.679Z,15.80
2022-12-11T13:27:40.110Z,14.43
2022-12-11T13:30:46.857Z,16.63
2022-12-11T13:33:25.449Z,15.88
2022-12-11T13:36:33.705Z,16.60
2022-12-11T13:45:03.914Z,15.40
2022-12-11T13:47:46.365Z,14.55
2022-12-11T13:50:31.904Z,19.98
2022-12-11T13:53:06.331Z,18.50
2022-12-11T13:55:43.355Z,20.15
2022-12-11T13:58:18.754Z,17.75
2022-12-11T14:01:09.415Z,17.73
2022-12-11T14:04:06.078Z,16.70
2022-12-11T14:06:38.220Z,16.58
2022-12-11T14:09:20.043Z,17.73
2022-12-11T14:12:25.010Z,18.67
2022-12-11T14:14:59.395Z,19.67
2022-12-11T14:17:38.074Z,18.02
2022-12-11T14:20:10.028Z,17.83
2022-12-11T14:22:38.185Z,18.75
2022-12-11T14:25:24.511Z,18.42
2022-12-11T14:28:04.320Z,17.73
2022-12-11T14:30:36.623Z,18.00
2022-12-11T14:33:12.587Z,15.88
2022-12-11T14:35:46.024Z,17.20
2022-12-11T14:38:19.032Z,17.73
2022-12-11T14:43:31.362Z,17.63
2022-12-11T14:46:03.535Z,16.70
2022-12-11T14:48:37.968Z,19.35
2022-12-11T14:51:09.863Z,19.17
2022-12-11T14:53:48.715Z,19.95
2022-12-11T14:56:24.099Z,19.60
2022-12-11T14:58:58.671Z,19.92
2022-12-11T15:05:12.005Z,17.85
2022-12-11T15:07:55.553Z,15.85
2022-12-11T15:11:09.344Z,16.52
2022-12-11T15:14:06.225Z,16.35
2022-12-11T15:16:50.435Z,16.83
2022-12-11T15:30:18.081Z,24.33
2022-12-11T15:34:54.647Z,18.92
2022-12-11T15:41:09.718Z,17.95
2022-12-11T15:45:01.388Z,17.75
2022-12-11T15:48:04.456Z,19.27
2022-12-11T15:51:13.378Z,19.25
2022-12-11T15:53:53.660Z,19.70
2022-12-11T15:56:36.295Z,20.40
2022-12-11T15:59:18.706Z,18.00
2022-12-11T16:02:13.305Z,20.40
2022-12-11T16:05:11.619Z,20.88
2022-12-11T16:07:52.290Z,18.15
2022-12-11T16:10:35.733Z,20.23
2022-12-11T16:13:20.065Z,20.10
2022-12-11T16:15:53.280Z,20.42
2022-12-11T16:18:36.143Z,19.30
2022-12-11T16:21:09.018Z,20.95
2022-12-11T16:23:52.861Z,20.00
2022-12-11T16:26:53.057Z,19.20
2022-12-11T16:29:25.046Z,19.90
2022-12-11T16:32:00.629Z,20.37
2022-12-11T16:34:43.644Z,20.08
2022-12-11T16:37:11.809Z,21.05
2022-12-11T16:39:46.082Z,21.90
2022-12-11T16:42:29.417Z,19.63
2022-12-11T16:45:05.833Z,20.15
2022-12-11T16:48:03.677Z,21.58
2022-12-11T16:50:32.335Z,18.67
2022-12-11T16:53:03.213Z,18.95
2022-12-11T16:55:35.527Z,23.63
2022-12-11T16:58:08.435Z,29.85
2022-12-11T17:03:10.260Z,21.75
2022-12-11T17:05:41.085Z,28.48
2022-12-11T17:08:15.345Z,20.15
2022-12-11T17:10:43.469Z,21.38
2022-12-11T17:13:22.180Z,22.38
2022-12-11T17:15:54.478Z,18.80
2022-12-11T17:18:25.648Z,17.90
2022-12-11T17:20:54.080Z,18.50
2022-12-11T17:23:21.972Z,20.58
2022-12-11T17:25:50.319Z,20.42
2022-12-11T17:28:24.950Z,22.98
2022-12-11T17:30:53.169Z,20.00
2022-12-11T17:33:21.459Z,19.67
2022-12-11T17:35:52.283Z,22.02
2022-12-11T17:38:20.217Z,23.92
2022-12-11T17:40:48.482Z,21.13
2022-12-11T17:43:23.171Z,20.45
2022-12-11T17:45:55.210Z,21.17
2022-12-11T17:48:24.378Z,21.77
2022-12-11T17:50:53.772Z,20.80
2022-12-11T17:53:22.452Z,19.33
2022-12-11T17:55:52.862Z,22.88
2022-12-11T17:58:25.509Z,21.17
2022-12-11T18:00:55.753Z,20.08
2022-12-11T18:03:23.899Z,21.38
2022-12-11T18:05:54.855Z,20.95
2022-12-11T18:08:25.910Z,22.48
2022-12-11T18:10:55.506Z,23.38
2022-12-11T18:13:25.445Z,27.65
2022-12-11T18:16:01.407Z,27.83
2022-12-11T18:18:33.152Z,28.50
2022-12-11T18:21:03.931Z,29.17
2022-12-11T18:23:40.443Z,25.85
2022-12-11T18:26:08.511Z,26.13
2022-12-11T18:28:37.953Z,34.17
2022-12-11T18:31:13.667Z,36.38
2022-12-11T18:33:48.170Z,25.42
2022-12-11T18:36:35.076Z,27.70
2022-12-11T18:39:04.923Z,23.52
2022-12-11T18:41:43.533Z,23.77
2022-12-11T18:44:25.210Z,24.88
2022-12-11T18:46:53.774Z,31.00
2022-12-11T18:49:22.366Z,30.60
2022-12-11T18:51:50.446Z,37.47
2022-12-11T18:54:21.399Z,34.70
2022-12-11T18:57:04.954Z,28.55
2022-12-11T18:59:34.862Z,24.95
2022-12-11T19:02:26.781Z,25.42
2022-12-11T19:05:46.626Z,28.33
2022-12-11T19:08:23.790Z,26.50
2022-12-11T19:10:54.107Z,24.00
2022-12-11T19:13:27.679Z,23.88
2022-12-11T19:16:03.930Z,23.85
2022-12-11T19:18:51.213Z,25.02
2022-12-11T19:21:25.623Z,39.22
2022-12-11T19:24:14.161Z,30.95
2022-12-11T19:27:13.643Z,29.20
2022-12-11T19:30:13.922Z,26.27
2022-12-11T19:33:49.280Z,23.95
2022-12-11T19:36:26.569Z,23.42
2022-12-11T19:39:13.059Z,19.90
2022-12-11T19:41:54.938Z,21.83
2022-12-11T19:44:48.770Z,20.70
2022-12-11T19:47:25.729Z,20.80
2022-12-11T19:50:21.882Z,22.55
2022-12-11T19:59:14.230Z,19.92
2022-12-11T20:09:30.320Z,29.40
2022-12-11T20:12:05.932Z,29.02
2022-12-11T20:15:10.219Z,26.05
2022-12-11T20:17:58.699Z,24.50
2022-12-11T20:20:49.862Z,22.88
2022-12-11T20:23:26.710Z,21.92
2022-12-11T20:26:31.967Z,21.98
2022-12-11T20:29:57.193Z,23.88
2022-12-11T20:32:10.925Z,22.27
2022-12-11T20:38:39.455Z,24.70
2022-12-11T20:41:29.205Z,24.42
2022-12-11T20:43:57.907Z,22.83
2022-12-11T20:46:27.251Z,22.23
2022-12-11T20:49:12.963Z,22.88
2022-12-11T20:52:06.431Z,25.17
2022-12-11T20:54:41.652Z,24.67
2022-12-11T20:57:32.833Z,26.42
2022-12-11T21:00:19.323Z,26.00
2022-12-11T21:02:59.589Z,23.67
2022-12-11T21:05:40.174Z,22.60
2022-12-11T21:08:13.822Z,24.98
2022-12-11T21:10:55.587Z,23.42
2022-12-11T21:13:32.965Z,28.40
2022-12-11T21:16:11.153Z,28.80
2022-12-11T21:18:47.682Z,27.10
2022-12-11T21:21:25.473Z,29.15
2022-12-11T21:23:56.408Z,25.48
2022-12-11T21:26:24.303Z,27.70
2022-12-11T21:28:56.969Z,23.13
2022-12-11T21:31:25.085Z,22.70
2022-12-11T21:33:56.090Z,22.20
2022-12-11T21:36:27.071Z,21.30
2022-12-11T21:38:55.049Z,22.77
2022-12-11T21:41:28.355Z,21.85
2022-12-11T21:46:42.068Z,20.00
2022-12-11T21:49:17.215Z,20.65
2022-12-11T21:51:49.265Z,19.73
2022-12-11T21:54:28.768Z,19.37
2022-12-11T21:57:09.987Z,19.45
2022-12-11T21:59:42.612Z,19.83
2022-12-11T22:02:20.316Z,19.15
2022-12-11T22:04:53.847Z,20.90
2022-12-11T22:07:30.899Z,18.20
2022-12-11T22:10:03.085Z,18.30
2022-12-11T22:12:39.610Z,16.98
2022-12-11T22:15:11.844Z,16.98
2022-12-11T22:17:42.673Z,18.05
2022-12-11T22:20:11.597Z,18.10
2022-12-11T22:22:43.828Z,18.75
2022-12-11T22:25:11.977Z,18.67
2022-12-11T22:27:40.058Z,18.20
2022-12-11T22:30:13.555Z,19.13
2022-12-11T22:32:41.929Z,19.00
2022-12-11T22:35:11.112Z,18.80
2022-12-11T22:37:39.220Z,17.98
2022-12-11T22:40:08.219Z,16.98
2022-12-11T22:42:47.945Z,18.15
2022-12-11T22:45:17.465Z,19.85
2022-12-11T22:47:45.414Z,18.00
2022-12-11T22:50:14.663Z,18.83
2022-12-11T22:52:42.851Z,17.13
2022-12-11T22:55:12.736Z,17.15
2022-12-11T22:57:43.584Z,16.60
2022-12-11T23:00:17.574Z,16.10
2022-12-11T23:02:45.586Z,17.00
2022-12-11T23:05:17.544Z,16.83
2022-12-11T23:07:45.452Z,16.00
2022-12-11T23:10:13.373Z,17.27
2022-12-11T23:12:44.168Z,15.38
2022-12-11T23:15:15.554Z,15.73
2022-12-11T23:17:53.787Z,17.05
2022-12-11T23:20:23.535Z,16.27
2022-12-11T23:22:51.387Z,16.85
2022-12-11T23:25:35.870Z,15.45
2022-12-11T23:28:06.608Z,14.82
2022-12-11T23:30:37.286Z,17.27
2022-12-11T23:33:09.527Z,15.15
2022-12-11T23:35:40.528Z,15.63
2022-12-11T23:38:11.144Z,15.10
2022-12-11T23:40:39.573Z,14.63
2022-12-11T23:43:09.831Z,14.40
2022-12-11T23:45:39.187Z,16.40
2022-12-11T23:48:08.794Z,15.57
2022-12-11T23:50:36.953Z,16.63
2022-12-11T23:53:09.347Z,15.35
2022-12-11T23:55:46.917Z,14.32
2022-12-11T23:58:17.937Z,15.77
